Time;durP1;ratioP1;P1;durP2;ratioP2;P2;SDS_P1;SDS_P2;PMS_P1;PMS_P2;Temp;Humidity;BMP_temperature;BMP_pressure;BME280_temperature;BME280_humidity;BME280_pressure;Samples;Min_cycle;Max_cycle;Signal;HPM_P1;HPM_P2
2022/11/15 00:01:09;;;;;;;1999.90;999.90;;;9.00;99.90;;;;;;5016631;28;20490;-69
2022/11/15 00:03:36;;;;;;;1999.90;999.90;;;9.80;99.90;;;;;;5012291;28;20531;-69
2022/11/15 00:06:05;;;;;;;1999.90;999.90;;;10.40;99.90;;;;;;5014970;28;20471;-69
2022/11/15 00:08:32;;;;;;;1999.90;999.90;;;10.90;99.90;;;;;;5012771;28;21089;-69
2022/11/15 00:11:01;;;;;;;1999.90;999.90;;;11.30;99.90;;;;;;5013259;28;20468;-70
2022/11/15 00:13:28;;;;;;;1999.90;999.90;;;11.40;99.90;;;;;;5010649;28;20608;-69
2022/11/15 00:15:58;;;;;;;1999.90;999.90;;;11.50;99.90;;;;;;5009902;28;20462;-69
2022/11/15 00:18:24;;;;;;;1999.90;999.90;;;11.80;99.90;;;;;;5015848;28;20455;-68
2022/11/15 00:20:51;;;;;;;1999.90;999.90;;;11.90;99.90;;;;;;5014004;28;20977;-69
2022/11/15 00:23:19;;;;;;;1999.90;999.90;;;12.00;99.90;;;;;;5015380;28;20491;-70
2022/11/15 00:25:46;;;;;;;1999.90;999.90;;;12.00;99.90;;;;;;5006453;28;20948;-70
2022/11/15 00:28:13;;;;;;;1999.90;999.90;;;11.90;99.90;;;;;;5011688;28;20487;-70
2022/11/15 00:30:40;;;;;;;1999.90;999.90;;;11.90;99.90;;;;;;5013520;28;20472;-68
2022/11/15 00:33:07;;;;;;;1999.90;999.90;;;12.00;99.90;;;;;;5015180;28;20483;-69
2022/11/15 00:35:35;;;;;;;1999.90;999.90;;;12.00;99.90;;;;;;5013033;28;20473;-69
2022/11/15 00:38:03;;;;;;;1999.90;999.90;;;12.00;99.90;;;;;;5014622;28;20543;-69
2022/11/15 00:40:31;;;;;;;1999.90;999.90;;;12.10;99.90;;;;;;5015216;28;20846;-69
2022/11/15 00:42:57;;;;;;;1999.90;999.90;;;12.20;99.90;;;;;;5006108;28;20487;-69
2022/11/15 00:45:25;;;;;;;1999.90;999.90;;;12.20;99.90;;;;;;5011843;28;20466;-69
2022/11/15 00:47:52;;;;;;;1999.90;999.90;;;12.20;99.90;;;;;;5009365;28;21084;-69
2022/11/15 00:50:20;;;;;;;1999.90;999.90;;;12.00;99.90;;;;;;5016447;28;20979;-68
2022/11/15 00:52:46;;;;;;;1999.90;999.90;;;12.00;99.90;;;;;;5006486;28;20491;-70
2022/11/15 00:55:16;;;;;;;1999.90;999.90;;;12.00;99.90;;;;;;5013679;28;20464;-70
2022/11/15 00:57:44;;;;;;;1999.90;999.90;;;11.70;99.90;;;;;;5014112;28;20562;-69
2022/11/15 01:00:12;;;;;;;1999.90;999.90;;;11.40;99.90;;;;;;5008812;28;20467;-69
2022/11/15 01:02:38;;;;;;;1999.90;999.90;;;11.00;99.90;;;;;;5014123;28;20494;-70
2022/11/15 01:05:06;;;;;;;1999.90;999.90;;;10.80;99.90;;;;;;5014910;28;20467;-70
2022/11/15 01:07:33;;;;;;;1999.90;999.90;;;10.50;99.90;;;;;;5012991;28;20809;-70
2022/11/15 01:10:00;;;;;;;1999.90;999.90;;;10.40;99.90;;;;;;5015155;28;20487;-70
2022/11/15 01:12:27;;;;;;;1999.90;999.90;;;10.20;99.90;;;;;;5014086;28;20830;-68
2022/11/15 01:14:55;;;;;;;1999.90;999.90;;;10.10;99.90;;;;;;5010240;28;20467;-70
2022/11/15 01:17:21;;;;;;;1999.90;999.90;;;10.10;99.90;;;;;;5010149;28;20460;-69
2022/11/15 01:19:48;;;;;;;1999.90;999.90;;;10.00;99.90;;;;;;5014915;28;20843;-69
2022/11/15 01:22:15;;;;;;;1999.90;999.90;;;9.90;99.90;;;;;;5016098;28;20952;-69
2022/11/15 01:24:42;;;;;;;1999.90;999.90;;;9.90;99.90;;;;;;5014698;28;21083;-69
2022/11/15 01:27:09;;;;;;;1999.90;999.90;;;9.80;99.90;;;;;;5017886;28;20459;-70
2022/11/15 01:29:35;;;;;;;1999.90;999.90;;;9.90;99.90;;;;;;5008846;28;20518;-70
2022/11/15 01:32:04;;;;;;;1999.90;999.90;;;9.90;99.90;;;;;;5012434;28;20460;-69
2022/11/15 01:34:31;;;;;;;1999.90;999.90;;;9.80;99.90;;;;;;5014399;28;20459;-69
2022/11/15 01:36:57;;;;;;;1999.90;999.90;;;9.70;99.90;;;;;;5015130;28;20456;-70
2022/11/15 01:39:24;;;;;;;1999.90;999.90;;;9.90;99.90;;;;;;5013383;28;20456;-70
2022/11/15 01:41:51;;;;;;;1999.90;999.90;;;10.10;99.90;;;;;;5013780;28;20460;-71
2022/11/15 01:44:39;;;;;;;1999.90;999.90;;;10.20;99.90;;;;;;5008917;28;20476;-70
2022/11/15 01:47:11;;;;;;;1999.90;999.90;;;10.90;99.90;;;;;;5012963;28;20881;-70
2022/11/15 01:49:42;;;;;;;1999.90;999.90;;;11.10;99.90;;;;;;5013587;28;20491;-69
2022/11/15 01:52:13;;;;;;;1999.90;999.90;;;11.40;99.90;;;;;;5012244;28;20471;-68
2022/11/15 01:54:40;;;;;;;1999.90;999.90;;;11.40;99.90;;;;;;5013114;28;20464;-69
2022/11/15 01:57:10;;;;;;;1999.90;999.90;;;11.30;99.90;;;;;;5011137;28;20463;-69
2022/11/15 01:59:39;;;;;;;1999.90;999.90;;;11.50;99.90;;;;;;5007576;28;20474;-70
2022/11/15 02:02:06;;;;;;;1999.90;999.90;;;11.80;99.90;;;;;;5013240;28;20502;-69
2022/11/15 02:04:38;;;;;;;1999.90;999.90;;;12.10;99.90;;;;;;5013659;28;20462;-68
2022/11/15 02:07:07;;;;;;;1999.90;999.90;;;11.90;99.90;;;;;;5013285;28;20471;-68
2022/11/15 02:09:36;;;;;;;1999.90;999.90;;;11.90;99.90;;;;;;5014773;28;20481;-67
2022/11/15 02:12:03;;;;;;;1999.90;999.90;;;11.80;99.90;;;;;;5010879;28;20464;-66
2022/11/15 02:14:32;;;;;;;1999.90;999.90;;;11.60;99.90;;;;;;5008282;28;20460;-68
2022/11/15 02:17:17;;;;;;;1999.90;999.90;;;11.50;99.90;;;;;;5009616;28;20475;-67
2022/11/15 02:20:23;;;;;;;1999.90;999.90;;;11.50;99.90;;;;;;5012543;28;20463;-68
2022/11/15 02:23:15;;;;;;;1999.90;999.90;;;11.30;99.90;;;;;;5012582;28;20480;-68
2022/11/15 02:25:53;;;;;;;1999.90;999.90;;;11.20;99.90;;;;;;4991533;28;20464;-68
2022/11/15 02:28:45;;;;;;;1999.90;999.90;;;11.00;99.90;;;;;;5030178;23;20507;-68
2022/11/15 02:31:21;;;;;;;1999.90;999.90;;;10.70;99.90;;;;;;4999488;28;20462;-67
2022/11/15 02:34:00;;;;;;;1999.90;999.90;;;10.90;99.90;;;;;;5000310;28;20457;-68
2022/11/15 02:36:37;;;;;;;1999.90;999.90;;;11.50;99.90;;;;;;4998877;28;20472;-73
2022/11/15 02:39:11;;;;;;;1999.90;999.90;;;11.40;99.90;;;;;;4992472;28;20861;-75
2022/11/15 02:41:42;;;;;;;1999.90;999.90;;;11.30;99.90;;;;;;4992182;28;20972;-69
2022/11/15 02:44:15;;;;;;;1999.90;999.90;;;11.10;99.90;;;;;;4993873;28;20548;-70
2022/11/15 02:49:35;;;;;;;1999.90;999.90;;;11.30;99.90;;;;;;4993507;28;22189;-68
2022/11/15 02:52:02;;;;;;;1999.90;999.90;;;10.90;99.90;;;;;;4993638;28;20460;-70
2022/11/15 02:54:32;;;;;;;1999.90;999.90;;;10.90;99.90;;;;;;4993329;28;20471;-71
2022/11/15 02:57:04;;;;;;;1999.90;999.90;;;10.80;99.90;;;;;;4993830;28;20496;-72
2022/11/15 02:59:57;;;;;;;1999.90;999.90;;;10.70;99.90;;;;;;4995768;28;20453;-73
2022/11/15 03:02:41;;;;;;;1999.90;999.90;;;10.50;99.90;;;;;;4996155;28;20465;-69
2022/11/15 03:05:19;;;;;;;1999.90;999.90;;;10.60;99.90;;;;;;4998240;28;20516;-68
2022/11/15 03:07:53;;;;;;;1999.90;999.90;;;10.60;99.90;;;;;;4996838;28;20479;-69
2022/11/15 03:10:25;;;;;;;1999.90;999.90;;;10.40;99.90;;;;;;4996635;28;20483;-71
2022/11/15 03:12:57;;;;;;;1999.90;999.90;;;10.20;99.90;;;;;;5000275;28;20467;-67
2022/11/15 03:15:30;;;;;;;1999.90;999.90;;;10.10;99.90;;;;;;4994987;28;20479;-69
2022/11/15 03:18:01;;;;;;;1999.90;999.90;;;9.90;99.90;;;;;;4996736;28;20634;-69
2022/11/15 03:20:29;;;;;;;1999.90;999.90;;;9.80;99.90;;;;;;4995850;28;20468;-72
2022/11/15 03:22:58;;;;;;;1999.90;999.90;;;9.70;99.90;;;;;;4997604;28;20471;-68
2022/11/15 03:25:26;;;;;;;1999.90;999.90;;;9.60;99.90;;;;;;4995328;28;20463;-68
2022/11/15 03:27:58;;;;;;;1999.90;999.90;;;9.70;99.90;;;;;;4995590;28;20496;-68
2022/11/15 03:30:25;;;;;;;1999.90;999.90;;;9.60;99.90;;;;;;4997921;28;20502;-70
2022/11/15 03:32:56;;;;;;;1999.90;999.90;;;9.30;99.90;;;;;;4996411;28;20451;-73
2022/11/15 03:35:27;;;;;;;1999.90;999.90;;;9.30;99.90;;;;;;4995379;28;20466;-71
2022/11/15 03:37:58;;;;;;;1999.90;999.90;;;9.30;99.90;;;;;;4997644;28;20866;-68
2022/11/15 03:40:31;;;;;;;1999.90;999.90;;;9.50;99.90;;;;;;5000913;28;20467;-69
2022/11/15 03:43:05;;;;;;;1999.90;999.90;;;9.40;99.90;;;;;;4996274;28;20972;-70
2022/11/15 03:45:36;;;;;;;1999.90;999.90;;;9.60;99.90;;;;;;4994569;28;20487;-69
2022/11/15 03:48:10;;;;;;;1999.90;999.90;;;9.70;99.90;;;;;;4999888;28;20480;-69
2022/11/15 03:50:39;;;;;;;1999.90;999.90;;;9.90;99.90;;;;;;4997560;28;20477;-67
2022/11/15 03:53:06;;;;;;;1999.90;999.90;;;9.80;99.90;;;;;;4999342;28;20492;-65
2022/11/15 03:55:34;;;;;;;1999.90;999.90;;;9.70;99.90;;;;;;4994646;28;20548;-70
2022/11/15 03:58:02;;;;;;;1999.90;999.90;;;9.70;99.90;;;;;;5012884;28;20526;-67
2022/11/15 04:00:29;;;;;;;1999.90;999.90;;;9.60;99.90;;;;;;5013904;28;20554;-68
2022/11/15 04:02:56;;;;;;;1999.90;999.90;;;9.50;99.90;;;;;;5010261;28;20560;-65
2022/11/15 04:05:23;;;;;;;1999.90;999.90;;;9.40;99.90;;;;;;4994788;28;20474;-72
2022/11/15 04:07:51;;;;;;;1999.90;999.90;;;9.30;99.90;;;;;;4996012;28;20477;-67
2022/11/15 04:10:18;;;;;;;1999.90;999.90;;;9.30;99.90;;;;;;4996515;28;20489;-68
2022/11/15 04:12:47;;;;;;;1999.90;999.90;;;9.20;99.90;;;;;;4996544;28;20468;-67
2022/11/15 04:15:16;;;;;;;1999.90;999.90;;;9.10;99.90;;;;;;4995915;28;20460;-70
2022/11/15 04:17:45;;;;;;;1999.90;999.90;;;9.10;99.90;;;;;;4994458;28;21779;-70
2022/11/15 04:25:45;;;;;;;1999.90;999.90;;;9.30;99.90;;;;;;5009896;28;20654;-71
2022/11/15 04:28:12;;;;;;;1999.90;999.90;;;9.40;99.90;;;;;;5007561;28;20497;-66
2022/11/15 04:30:40;;;;;;;1999.90;999.90;;;9.60;99.90;;;;;;4997555;28;20488;-66
2022/11/15 04:33:07;;;;;;;1999.90;999.90;;;9.90;99.90;;;;;;4996050;28;20460;-71
2022/11/15 04:35:34;;;;;;;1999.90;999.90;;;10.00;99.90;;;;;;4995019;28;20502;-73
2022/11/15 04:38:02;;;;;;;1999.90;999.90;;;10.30;99.90;;;;;;5000136;28;20487;-68
2022/11/15 04:40:29;;;;;;;1999.90;999.90;;;9.90;99.90;;;;;;4995978;28;20456;-69
2022/11/15 04:42:56;;;;;;;1999.90;999.90;;;9.90;99.90;;;;;;4994619;28;20468;-72
2022/11/15 04:45:23;;;;;;;1999.90;999.90;;;9.90;99.90;;;;;;4996502;28;20838;-68
2022/11/15 04:47:49;;;;;;;1999.90;999.90;;;9.90;99.90;;;;;;4995333;28;20479;-72
2022/11/15 04:50:17;;;;;;;1999.90;999.90;;;10.00;99.90;;;;;;4993829;28;20492;-69
2022/11/15 04:52:50;;;;;;;1999.90;999.90;;;10.00;99.90;;;;;;4993647;28;20839;-68
2022/11/15 04:55:19;;;;;;;1999.90;999.90;;;10.00;99.90;;;;;;4992054;28;20942;-71
2022/11/15 04:57:45;;;;;;;1999.90;999.90;;;10.20;99.90;;;;;;4995611;28;20503;-69
2022/11/15 05:00:16;;;;;;;1999.90;999.90;;;10.50;99.90;;;;;;4995871;28;20938;-68
2022/11/15 05:05:27;;;;;;;1999.90;999.90;;;10.60;99.90;;;;;;4993917;28;20471;-69
2022/11/15 05:07:54;;;;;;;1999.90;999.90;;;10.50;99.90;;;;;;4994216;28;20503;-69
2022/11/15 05:10:22;;;;;;;1999.90;999.90;;;10.60;99.90;;;;;;4994151;28;20495;-69
2022/11/15 05:12:49;;;;;;;1999.90;999.90;;;10.40;99.90;;;;;;4994338;28;20985;-72
2022/11/15 05:15:16;;;;;;;1999.90;999.90;;;10.50;99.90;;;;;;4995016;28;20869;-70
2022/11/15 05:17:42;;;;;;;1999.90;999.90;;;10.60;99.90;;;;;;4993494;28;20485;-76
2022/11/15 05:20:10;;;;;;;1999.90;999.90;;;10.50;99.90;;;;;;4997041;28;20469;-67
2022/11/15 05:22:38;;;;;;;1999.90;999.90;;;10.50;99.90;;;;;;4994339;28;20839;-65
2022/11/15 05:25:05;;;;;;;1999.90;999.90;;;10.30;99.90;;;;;;4994869;28;21101;-66
2022/11/15 05:27:34;;;;;;;1999.90;999.90;;;10.20;99.90;;;;;;4994003;28;20492;-71
2022/11/15 05:30:01;;;;;;;1999.90;999.90;;;10.10;99.90;;;;;;4995850;28;21256;-69
2022/11/15 05:32:28;;;;;;;1999.90;999.90;;;10.10;99.90;;;;;;4994764;28;20985;-68
2022/11/15 05:34:56;;;;;;;1999.90;999.90;;;9.90;99.90;;;;;;4993132;28;20463;-67
2022/11/15 05:37:23;;;;;;;1999.90;999.90;;;9.80;99.90;;;;;;4994412;28;20488;-67
2022/11/15 05:39:49;;;;;;;1999.90;999.90;;;9.80;99.90;;;;;;4993889;28;20467;-67
2022/11/15 05:42:17;;;;;;;1999.90;999.90;;;9.80;99.90;;;;;;4995876;28;20460;-69
2022/11/15 05:44:48;;;;;;;1999.90;999.90;;;9.90;99.90;;;;;;4993344;28;20922;-71
2022/11/15 05:47:20;;;;;;;1999.90;999.90;;;9.70;99.90;;;;;;4993233;28;20484;-68
2022/11/15 05:49:49;;;;;;;1999.90;999.90;;;9.70;99.90;;;;;;4993365;28;20472;-66
2022/11/15 05:52:20;;;;;;;1999.90;999.90;;;9.60;99.90;;;;;;4996247;28;20456;-71
2022/11/15 05:54:47;;;;;;;1999.90;999.90;;;9.50;99.90;;;;;;4993172;28;20468;-69
2022/11/15 05:57:14;;;;;;;1999.90;999.90;;;9.50;99.90;;;;;;4995189;28;20480;-69
2022/11/15 05:59:43;;;;;;;1999.90;999.90;;;9.40;99.90;;;;;;4993714;28;20468;-68
2022/11/15 06:02:11;;;;;;;1999.90;999.90;;;9.30;99.90;;;;;;4997008;28;21228;-72
2022/11/15 06:04:38;;;;;;;1999.90;999.90;;;9.20;99.90;;;;;;4991849;28;20478;-66
2022/11/15 06:07:05;;;;;;;1999.90;999.90;;;9.40;99.90;;;;;;4994263;28;20634;-67
2022/11/15 06:09:32;;;;;;;1999.90;999.90;;;9.70;99.90;;;;;;4995008;28;20468;-70
2022/11/15 06:11:59;;;;;;;1999.90;999.90;;;9.40;99.90;;;;;;4993979;28;20482;-68
2022/11/15 06:14:26;;;;;;;1999.90;999.90;;;9.60;99.90;;;;;;4993599;28;20472;-66
2022/11/15 06:16:52;;;;;;;1999.90;999.90;;;9.80;99.90;;;;;;4994903;28;20483;-70
2022/11/15 06:19:20;;;;;;;1999.90;999.90;;;9.90;99.90;;;;;;4995658;28;20538;-67
2022/11/15 06:21:47;;;;;;;1999.90;999.90;;;9.90;99.90;;;;;;4992914;28;20471;-66
2022/11/15 06:24:14;;;;;;;1999.90;999.90;;;9.90;99.90;;;;;;4993225;28;20470;-64
2022/11/15 06:26:41;;;;;;;1999.90;999.90;;;10.00;99.90;;;;;;4998881;28;20469;-69
2022/11/15 06:29:08;;;;;;;1999.90;999.90;;;10.00;99.90;;;;;;4997345;28;20471;-67
2022/11/15 06:31:35;;;;;;;1999.90;999.90;;;10.00;99.90;;;;;;4992485;28;20498;-69
2022/11/15 06:34:02;;;;;;;1999.90;999.90;;;10.00;99.90;;;;;;4994585;28;20474;-69
2022/11/15 06:36:30;;;;;;;1999.90;999.90;;;9.90;99.90;;;;;;4992414;28;20460;-65
2022/11/15 06:38:57;;;;;;;1999.90;999.90;;;9.90;99.90;;;;;;5009882;28;20467;-68
2022/11/15 06:41:24;;;;;;;1999.90;999.90;;;9.80;99.90;;;;;;5013799;28;20440;-69
2022/11/15 06:43:51;;;;;;;1999.90;999.90;;;9.80;99.90;;;;;;5012134;28;20474;-67
2022/11/15 06:46:18;;;;;;;1999.90;999.90;;;9.80;99.90;;;;;;5011335;28;20454;-67
2022/11/15 06:48:45;;;;;;;1999.90;999.90;;;9.80;99.90;;;;;;5011534;28;20464;-72
2022/11/15 06:51:11;;;;;;;1999.90;999.90;;;9.80;99.90;;;;;;5000369;28;20588;-70
2022/11/15 06:53:40;;;;;;;1999.90;999.90;;;9.70;99.90;;;;;;4991222;28;20840;-65
2022/11/15 06:56:08;;;;;;;1999.90;999.90;;;9.60;99.90;;;;;;4990134;28;20977;-68
2022/11/15 06:58:36;;;;;;;1999.90;999.90;;;9.60;99.90;;;;;;4991851;28;20553;-70
2022/11/15 07:01:04;;;;;;;1999.90;999.90;;;9.70;99.90;;;;;;4994419;28;20467;-67
2022/11/15 07:03:31;;;;;;;1999.90;999.90;;;9.80;99.90;;;;;;4997300;28;21051;-66
2022/11/15 07:05:59;;;;;;;1999.90;999.90;;;10.00;99.90;;;;;;4994212;28;20883;-69
2022/11/15 07:08:29;;;;;;;1999.90;999.90;;;10.10;99.90;;;;;;4992768;28;20488;-70
2022/11/15 07:10:59;;;;;;;1999.90;999.90;;;10.20;99.90;;;;;;4992554;28;20484;-67
2022/11/15 07:13:27;;;;;;;1999.90;999.90;;;10.20;99.90;;;;;;4996158;28;20456;-70
2022/11/15 07:15:54;;;;;;;1999.90;999.90;;;10.30;99.90;;;;;;4992448;28;20478;-66
2022/11/15 07:18:21;;;;;;;1999.90;999.90;;;10.30;99.90;;;;;;4993325;28;20494;-74
2022/11/15 07:20:48;;;;;;;1999.90;999.90;;;10.40;99.90;;;;;;4991420;28;20457;-70
2022/11/15 07:23:15;;;;;;;1999.90;999.90;;;10.40;99.90;;;;;;4991916;28;20475;-68
2022/11/15 07:25:41;;;;;;;1999.90;999.90;;;10.50;99.90;;;;;;4990657;28;20461;-73
2022/11/15 07:28:10;;;;;;;1999.90;999.90;;;10.40;99.90;;;;;;4991482;28;20866;-69
2022/11/15 07:30:36;;;;;;;1999.90;999.90;;;10.30;99.90;;;;;;4992046;28;20866;-70
2022/11/15 07:33:03;;;;;;;1999.90;999.90;;;10.30;99.90;;;;;;4992932;28;20477;-69
2022/11/15 07:35:31;;;;;;;1999.90;999.90;;;10.40;99.90;;;;;;4992111;28;20487;-68
2022/11/15 07:37:59;;;;;;;1999.90;999.90;;;10.40;99.90;;;;;;4992642;28;20491;-66
2022/11/15 07:40:27;;;;;;;1999.90;999.90;;;10.50;99.90;;;;;;4992415;28;20460;-69
2022/11/15 07:42:59;;;;;;;1999.90;999.90;;;10.60;99.90;;;;;;4995085;28;20469;-68
2022/11/15 07:45:27;;;;;;;1999.90;999.90;;;10.70;99.90;;;;;;4993449;28;20455;-71
2022/11/15 07:47:55;;;;;;;1999.90;999.90;;;10.80;99.90;;;;;;4995727;28;20495;-69
2022/11/15 07:50:23;;;;;;;1999.90;999.90;;;11.00;99.90;;;;;;4999269;28;20574;-68
2022/11/15 07:52:55;;;;;;;1999.90;999.90;;;11.10;99.90;;;;;;4996138;28;20972;-70
2022/11/15 07:55:22;;;;;;;1999.90;999.90;;;11.20;99.90;;;;;;4995244;28;20467;-73
2022/11/15 07:57:49;;;;;;;1999.90;999.90;;;11.60;99.90;;;;;;5004915;28;20484;-70
2022/11/15 08:00:17;;;;;;;1999.90;999.90;;;11.50;99.90;;;;;;5007782;28;20475;-70
2022/11/15 08:02:45;;;;;;;1999.90;999.90;;;11.50;99.90;;;;;;5013570;28;20837;-69
2022/11/15 08:05:12;;;;;;;1999.90;999.90;;;11.60;99.90;;;;;;5009537;28;20460;-73
2022/11/15 08:07:40;;;;;;;1999.90;999.90;;;11.70;99.90;;;;;;5009142;28;20484;-68
2022/11/15 08:10:08;;;;;;;1999.90;999.90;;;12.00;99.90;;;;;;5006913;28;20465;-69
2022/11/15 08:12:35;;;;;;;1999.90;999.90;;;12.10;99.90;;;;;;5013258;28;20459;-69
2022/11/15 08:15:01;;;;;;;1999.90;999.90;;;12.20;99.90;;;;;;5002938;28;20456;-72
2022/11/15 08:17:31;;;;;;;1999.90;999.90;;;12.30;99.90;;;;;;5007433;28;20484;-70
2022/11/15 08:19:59;;;;;;;1999.90;999.90;;;12.50;99.90;;;;;;5007544;28;21175;-70
2022/11/15 08:22:26;;;;;;;1999.90;999.90;;;12.60;99.90;;;;;;5000704;28;20461;-70
2022/11/15 08:24:53;;;;;;;1999.90;999.90;;;13.00;99.90;;;;;;5007983;28;20464;-71
2022/11/15 08:27:20;;;;;;;1999.90;999.90;;;12.90;99.90;;;;;;5005568;28;20492;-70
2022/11/15 08:29:49;;;;;;;1999.90;999.90;;;13.00;99.90;;;;;;5016275;23;20504;-66
2022/11/15 08:32:17;;;;;;;1999.90;999.90;;;13.10;99.90;;;;;;4989275;28;20485;-66
2022/11/15 08:34:44;;;;;;;1999.90;999.90;;;13.40;99.90;;;;;;4980158;28;20986;-68
2022/11/15 08:37:12;;;;;;;1999.90;999.90;;;13.60;99.90;;;;;;4987473;28;20468;-68
2022/11/15 08:39:39;;;;;;;1999.90;999.90;;;13.60;99.90;;;;;;4988153;28;20465;-68
2022/11/15 08:42:06;;;;;;;1999.90;999.90;;;13.70;99.90;;;;;;4994506;28;20452;-68
2022/11/15 08:44:32;;;;;;;1999.90;999.90;;;13.90;99.90;;;;;;4993614;28;20460;-69
2022/11/15 08:46:59;;;;;;;1999.90;999.90;;;14.10;99.90;;;;;;4994491;28;20459;-68
2022/11/15 08:49:26;;;;;;;1999.90;999.90;;;14.30;99.90;;;;;;4985251;28;20477;-68
2022/11/15 08:51:52;;;;;;;1999.90;999.90;;;14.40;99.90;;;;;;4993940;28;20485;-69
2022/11/15 08:54:21;;;;;;;1999.90;999.90;;;14.50;99.90;;;;;;4993087;28;20452;-68
2022/11/15 08:56:47;;;;;;;1999.90;999.90;;;14.60;99.90;;;;;;4993140;28;20445;-68
2022/11/15 08:59:14;;;;;;;1999.90;999.90;;;14.60;99.90;;;;;;4994147;28;20465;-68
2022/11/15 09:01:41;;;;;;;1999.90;999.90;;;14.40;99.90;;;;;;4992561;28;20934;-69
2022/11/15 09:04:08;;;;;;;1999.90;999.90;;;14.60;99.90;;;;;;4985649;28;20448;-69
2022/11/15 09:06:34;;;;;;;1999.90;999.90;;;14.80;99.90;;;;;;4993089;28;20456;-68
2022/11/15 09:09:02;;;;;;;1999.90;999.90;;;14.70;99.90;;;;;;4994076;28;20475;-69
2022/11/15 09:11:30;;;;;;;1999.90;999.90;;;14.60;99.90;;;;;;4993305;28;20481;-68
2022/11/15 09:13:57;;;;;;;1999.90;999.90;;;14.40;99.90;;;;;;4993992;28;20456;-68
2022/11/15 09:16:23;;;;;;;1999.90;999.90;;;14.50;99.90;;;;;;4988804;28;20477;-69
2022/11/15 09:18:50;;;;;;;1999.90;999.90;;;14.40;99.90;;;;;;4989062;28;20465;-69
2022/11/15 09:21:17;;;;;;;1999.90;999.90;;;14.40;99.90;;;;;;4993779;28;20451;-70
2022/11/15 09:23:44;;;;;;;1999.90;999.90;;;14.40;99.90;;;;;;4986329;28;20473;-69
2022/11/15 09:26:10;;;;;;;1999.90;999.90;;;14.50;99.90;;;;;;4990606;28;20456;-69
2022/11/15 09:28:41;;;;;;;1999.90;999.90;;;14.60;99.90;;;;;;4993443;28;20491;-68
2022/11/15 09:31:08;;;;;;;1999.90;999.90;;;14.70;99.90;;;;;;4984061;28;20489;-69
2022/11/15 09:33:35;;;;;;;1999.90;999.90;;;14.70;99.90;;;;;;4993260;28;20457;-69
2022/11/15 09:36:03;;;;;;;1999.90;999.90;;;14.80;99.90;;;;;;4981327;28;20470;-69
2022/11/15 09:38:30;;;;;;;1999.90;999.90;;;14.90;99.90;;;;;;4990110;28;20875;-69
2022/11/15 09:41:11;;;;;;;1999.90;999.90;;;15.40;99.90;;;;;;4991396;28;20468;-68
2022/11/15 09:43:47;;;;;;;1999.90;999.90;;;14.90;99.90;;;;;;4987255;28;20461;-69
2022/11/15 09:46:20;;;;;;;1999.90;999.90;;;15.10;99.90;;;;;;4987157;28;20817;-69
2022/11/15 09:48:56;;;;;;;1999.90;999.90;;;15.20;99.90;;;;;;4989556;28;20481;-68
2022/11/15 09:51:29;;;;;;;1999.90;999.90;;;15.60;99.90;;;;;;4985505;28;20482;-69
2022/11/15 09:54:10;;;;;;;1999.90;999.90;;;15.50;99.90;;;;;;4998171;28;20456;-69
2022/11/15 09:56:41;;;;;;;1999.90;999.90;;;15.50;99.90;;;;;;4991383;28;20461;-68
2022/11/15 09:59:39;;;;;;;1999.90;999.90;;;15.50;99.90;;;;;;4992377;28;20472;-69
2022/11/15 10:02:19;;;;;;;1999.90;999.90;;;15.60;99.90;;;;;;4992897;28;21050;-69
2022/11/15 10:04:45;;;;;;;1999.90;999.90;;;15.70;99.90;;;;;;4992194;28;20434;-69
2022/11/15 10:07:18;;;;;;;1999.90;999.90;;;16.00;99.90;;;;;;4992487;28;20942;-68
2022/11/15 10:09:48;;;;;;;1999.90;999.90;;;15.80;99.90;;;;;;4993014;28;20468;-68
2022/11/15 10:12:16;;;;;;;1999.90;999.90;;;15.90;99.90;;;;;;4983629;28;20570;-68
2022/11/15 10:14:46;;;;;;;1999.90;999.90;;;16.00;99.90;;;;;;4991986;28;20532;-66
2022/11/15 10:17:43;;;;;;;1999.90;999.90;;;16.00;99.90;;;;;;4992549;28;20449;-66
2022/11/15 10:20:17;;;;;;;1999.90;999.90;;;16.10;99.90;;;;;;4992647;28;20465;-66
2022/11/15 10:22:47;;;;;;;1999.90;999.90;;;16.10;99.90;;;;;;4992960;28;20445;-66
2022/11/15 10:25:19;;;;;;;1999.90;999.90;;;16.20;99.90;;;;;;4988589;28;21035;-67
2022/11/15 10:27:52;;;;;;;1999.90;999.90;;;16.30;99.90;;;;;;4987444;28;20452;-66
2022/11/15 10:30:24;;;;;;;1999.90;999.90;;;16.40;99.90;;;;;;4991856;28;20480;-66
2022/11/15 10:32:51;;;;;;;1999.90;999.90;;;16.40;99.90;;;;;;4992548;28;20505;-66
2022/11/15 10:35:24;;;;;;;1999.90;999.90;;;16.50;99.90;;;;;;4991671;28;20941;-65
2022/11/15 10:37:51;;;;;;;1999.90;999.90;;;16.40;99.90;;;;;;4992080;28;20805;-66
2022/11/15 10:40:22;;;;;;;1999.90;999.90;;;16.40;99.90;;;;;;4982930;28;20486;-65
2022/11/15 10:42:49;;;;;;;1999.90;999.90;;;16.40;99.90;;;;;;4992207;28;21046;-69
2022/11/15 10:45:29;;;;;;;1999.90;999.90;;;16.30;99.90;;;;;;4991799;28;20812;-65
2022/11/15 10:48:21;;;;;;;1999.90;999.90;;;16.30;99.90;;;;;;4992710;28;20814;-67
2022/11/15 10:50:49;;;;;;;1999.90;999.90;;;16.50;99.90;;;;;;4992247;28;20512;-66
2022/11/15 10:53:22;;;;;;;1999.90;999.90;;;16.50;99.90;;;;;;4988713;28;20469;-66
2022/11/15 10:55:52;;;;;;;1999.90;999.90;;;16.50;99.90;;;;;;4984692;28;20453;-67
2022/11/15 10:58:30;;;;;;;1999.90;999.90;;;16.60;99.90;;;;;;4991995;28;20477;-66
2022/11/15 11:01:10;;;;;;;1999.90;999.90;;;16.70;99.90;;;;;;4992107;28;20452;-67
2022/11/15 11:03:38;;;;;;;1999.90;999.90;;;16.70;99.90;;;;;;4990170;28;20465;-68
2022/11/15 11:06:08;;;;;;;1999.90;999.90;;;16.70;99.90;;;;;;4985968;28;20512;-67
2022/11/15 11:08:36;;;;;;;1999.90;999.90;;;16.70;99.90;;;;;;4983924;28;20484;-66
2022/11/15 11:11:04;;;;;;;1999.90;999.90;;;16.80;99.90;;;;;;4989814;28;20461;-67
2022/11/15 11:13:33;;;;;;;1999.90;999.90;;;16.80;99.90;;;;;;4987139;28;20465;-66
2022/11/15 11:16:21;;;;;;;1999.90;999.90;;;16.80;99.90;;;;;;4990669;28;20465;-66
2022/11/15 11:18:55;;;;;;;1999.90;999.90;;;17.20;99.90;;;;;;4991599;28;20480;-67
2022/11/15 11:21:31;;;;;;;1999.90;999.90;;;17.00;99.90;;;;;;4993786;28;20453;-66
2022/11/15 11:24:04;;;;;;;1999.90;999.90;;;17.10;99.90;;;;;;4991701;28;20471;-67
2022/11/15 11:26:42;;;;;;;1999.90;999.90;;;17.30;99.90;;;;;;4992091;28;20460;-66
2022/11/15 11:29:26;;;;;;;1999.90;999.90;;;17.40;99.90;;;;;;4990802;28;20496;-66
2022/11/15 11:32:04;;;;;;;1999.90;999.90;;;17.40;99.90;;;;;;4989756;28;20482;-66
2022/11/15 11:34:46;;;;;;;1999.90;999.90;;;17.30;99.90;;;;;;4990765;28;20918;-65
2022/11/15 11:37:18;;;;;;;1999.90;999.90;;;17.40;99.90;;;;;;4989300;28;20476;-65
2022/11/15 11:39:56;;;;;;;1999.90;999.90;;;17.70;99.90;;;;;;4992696;28;20485;-66
2022/11/15 11:42:34;;;;;;;1999.90;999.90;;;17.50;99.90;;;;;;4986052;28;20457;-66
2022/11/15 11:45:15;;;;;;;1999.90;999.90;;;17.70;99.90;;;;;;4993182;28;20822;-66
2022/11/15 11:47:48;;;;;;;1999.90;999.90;;;17.80;99.90;;;;;;4983295;28;20460;-66
2022/11/15 11:50:19;;;;;;;1999.90;999.90;;;18.00;99.90;;;;;;4995345;28;20472;-66
2022/11/15 11:53:04;;;;;;;1999.90;999.90;;;18.00;99.90;;;;;;4994903;28;20483;-66
2022/11/15 11:55:37;;;;;;;1999.90;999.90;;;17.90;99.90;;;;;;4992759;28;20828;-66
2022/11/15 11:58:14;;;;;;;1999.90;999.90;;;18.10;99.90;;;;;;4995390;28;20433;-66
2022/11/15 12:00:43;;;;;;;1999.90;999.90;;;18.10;99.90;;;;;;4986131;28;20464;-66
2022/11/15 12:03:17;;;;;;;1999.90;999.90;;;18.40;99.90;;;;;;4995148;28;20445;-66
2022/11/15 12:05:47;;;;;;;1999.90;999.90;;;18.40;99.90;;;;;;4994587;28;20826;-66
2022/11/15 12:08:28;;;;;;;1999.90;999.90;;;18.30;99.90;;;;;;4994975;28;20449;-66
2022/11/15 12:11:01;;;;;;;1999.90;999.90;;;17.80;99.90;;;;;;4995108;28;20459;-66
2022/11/15 12:13:33;;;;;;;1999.90;999.90;;;17.70;99.90;;;;;;4993483;28;20461;-66
2022/11/15 12:16:06;;;;;;;1999.90;999.90;;;17.40;99.90;;;;;;4986013;28;20445;-66
2022/11/15 12:18:35;;;;;;;1999.90;999.90;;;17.40;99.90;;;;;;4994952;28;20472;-66
2022/11/15 12:21:07;;;;;;;1999.90;999.90;;;17.30;99.90;;;;;;4992593;28;20476;-66
2022/11/15 12:23:50;;;;;;;1999.90;999.90;;;17.40;99.90;;;;;;4985997;28;20995;-66
2022/11/15 12:26:21;;;;;;;1999.90;999.90;;;17.10;99.90;;;;;;4992942;28;20449;-66